createdAt,value
2019-02-25T00:02:01.446Z,36.77
2019-02-25T00:04:31.467Z,30.13
2019-02-25T00:07:06.943Z,35.50
2019-02-25T00:09:36.993Z,39.57
2019-02-25T00:12:06.782Z,30.07
2019-02-25T00:14:36.594Z,40.93
2019-02-25T00:17:06.626Z,32.17
2019-02-25T00:19:36.321Z,33.00
2019-02-25T00:22:08.071Z,31.87
2019-02-25T00:24:37.855Z,37.10
2019-02-25T00:27:12.164Z,39.40
2019-02-25T00:29:42.256Z,38.27
2019-02-25T00:32:13.314Z,33.07
2019-02-25T00:34:44.487Z,30.77
2019-02-25T00:37:14.274Z,32.17
2019-02-25T00:39:44.006Z,35.20
2019-02-25T00:42:13.848Z,30.50
2019-02-25T00:44:43.679Z,30.10
2019-02-25T00:47:13.475Z,29.17
2019-02-25T00:49:44.867Z,28.90
2019-02-25T00:52:15.886Z,30.17
2019-02-25T00:54:45.801Z,30.20
2019-02-25T00:57:15.587Z,32.17
2019-02-25T00:59:56.935Z,33.20
2019-02-25T01:02:26.733Z,30.57
2019-02-25T01:04:59.507Z,39.83
2019-02-25T01:07:29.438Z,37.67
2019-02-25T01:09:59.150Z,40.00
2019-02-25T01:12:29.012Z,30.27
2019-02-25T01:14:59.208Z,40.43
2019-02-25T01:17:29.149Z,28.13
2019-02-25T01:19:58.864Z,29.90
2019-02-25T01:22:28.673Z,30.20
2019-02-25T01:25:01.024Z,33.57
2019-02-25T01:27:30.857Z,28.63
2019-02-25T01:30:00.590Z,33.40
2019-02-25T01:32:30.398Z,29.13
2019-02-25T01:35:00.295Z,31.57
2019-02-25T01:37:31.370Z,31.17
2019-02-25T01:40:03.820Z,36.33
2019-02-25T01:42:36.834Z,28.67
2019-02-25T01:45:09.486Z,29.50
2019-02-25T01:47:39.290Z,32.17
2019-02-25T01:50:10.110Z,28.80
2019-02-25T01:52:42.735Z,31.87
2019-02-25T01:55:13.913Z,28.40
2019-02-25T01:57:43.897Z,29.30
2019-02-25T02:00:22.923Z,28.10
2019-02-25T02:02:52.638Z,30.57
2019-02-25T02:05:24.347Z,31.90
2019-02-25T02:07:53.930Z,32.63
2019-02-25T02:10:26.962Z,30.57
2019-02-25T02:12:58.887Z,27.20
2019-02-25T02:15:28.709Z,32.23
2019-02-25T02:17:58.545Z,25.50
2019-02-25T02:20:30.910Z,27.37
2019-02-25T02:23:00.758Z,28.40
2019-02-25T02:25:30.544Z,27.53
2019-02-25T02:28:03.238Z,29.93
2019-02-25T02:30:33.019Z,30.43
2019-02-25T02:33:02.770Z,33.73
2019-02-25T02:35:32.590Z,25.93
2019-02-25T02:38:04.026Z,40.57
2019-02-25T02:40:33.843Z,27.10
2019-02-25T02:43:06.630Z,29.13
2019-02-25T02:46:00.972Z,29.50
2019-02-25T02:48:36.044Z,33.43
2019-02-25T02:51:06.237Z,33.47
2019-02-25T02:53:36.067Z,31.97
2019-02-25T02:56:05.778Z,25.60
2019-02-25T02:58:35.576Z,25.43
2019-02-25T03:01:05.509Z,26.63
2019-02-25T03:03:40.778Z,25.97
2019-02-25T03:06:13.071Z,24.67
2019-02-25T03:08:45.318Z,24.47
2019-02-25T03:11:16.369Z,30.07
2019-02-25T03:13:46.266Z,33.50
2019-02-25T03:16:15.991Z,30.03
2019-02-25T03:18:45.756Z,25.40
2019-02-25T03:21:15.512Z,30.13
2019-02-25T03:23:45.775Z,30.97
2019-02-25T03:26:15.717Z,24.73
2019-02-25T03:28:45.573Z,29.57
2019-02-25T03:31:15.399Z,33.53
2019-02-25T03:33:45.281Z,23.80
2019-02-25T03:36:15.059Z,21.30
2019-02-25T03:38:48.248Z,21.40
2019-02-25T03:41:18.184Z,26.27
2019-02-25T03:43:49.453Z,25.07
2019-02-25T03:46:20.968Z,21.97
2019-02-25T03:48:50.794Z,27.50
2019-02-25T03:51:20.561Z,21.77
2019-02-25T03:53:50.362Z,30.20
2019-02-25T03:56:20.733Z,24.70
2019-02-25T03:58:55.358Z,29.77
2019-02-25T04:01:27.826Z,34.13
2019-02-25T04:04:05.578Z,21.13
2019-02-25T04:06:41.846Z,24.53
2019-02-25T04:09:11.625Z,22.13
2019-02-25T04:11:41.524Z,28.73
2019-02-25T04:14:11.233Z,20.17
2019-02-25T04:16:41.169Z,19.63
2019-02-25T04:19:11.599Z,26.13
2019-02-25T04:21:41.430Z,24.77
2019-02-25T04:24:11.244Z,22.27
2019-02-25T04:26:42.930Z,24.33
2019-02-25T04:29:17.810Z,21.87
2019-02-25T04:31:49.401Z,25.10
2019-02-25T04:34:19.094Z,27.47
2019-02-25T04:36:48.891Z,21.33
2019-02-25T04:39:18.809Z,24.13
2019-02-25T04:41:48.743Z,26.40
2019-02-25T04:44:18.528Z,26.07
2019-02-25T04:46:51.742Z,15.77
2019-02-25T04:49:21.574Z,20.17
2019-02-25T04:51:53.029Z,21.27
2019-02-25T04:54:22.822Z,25.60
2019-02-25T04:56:52.595Z,24.40
2019-02-25T04:59:22.582Z,20.73
2019-02-25T05:01:52.291Z,28.60
2019-02-25T05:04:22.496Z,22.43
2019-02-25T05:06:55.065Z,31.83
2019-02-25T05:09:24.761Z,21.90
2019-02-25T05:11:57.106Z,27.30
2019-02-25T05:14:33.944Z,29.03
2019-02-25T05:17:07.886Z,23.53
2019-02-25T05:19:42.238Z,27.80
2019-02-25T05:22:12.033Z,26.63
2019-02-25T05:24:45.778Z,24.37
2019-02-25T05:27:15.618Z,20.57
2019-02-25T05:29:45.381Z,26.60
2019-02-25T05:32:15.495Z,25.43
2019-02-25T05:34:45.278Z,25.83
2019-02-25T05:37:18.126Z,22.57
2019-02-25T05:39:53.794Z,22.43
2019-02-25T05:42:23.895Z,22.63
2019-02-25T05:44:57.621Z,21.20
2019-02-25T05:47:33.678Z,22.70
2019-02-25T05:50:03.881Z,22.97
2019-02-25T05:52:34.684Z,34.77
2019-02-25T05:55:07.568Z,26.40
2019-02-25T05:57:37.302Z,29.37
2019-02-25T06:00:11.726Z,23.47
2019-02-25T06:02:45.491Z,20.77
2019-02-25T06:05:15.419Z,25.50
2019-02-25T06:07:45.335Z,24.90
2019-02-25T06:10:15.118Z,20.43
2019-02-25T06:12:44.938Z,22.47
2019-02-25T06:15:18.564Z,19.53
2019-02-25T06:17:51.426Z,30.30
2019-02-25T06:20:21.386Z,26.10
2019-02-25T06:22:53.660Z,24.03
2019-02-25T06:25:23.509Z,24.40
2019-02-25T06:28:01.432Z,30.73
2019-02-25T06:30:31.179Z,24.90
2019-02-25T06:33:05.006Z,23.50
2019-02-25T06:35:36.555Z,28.13
2019-02-25T06:38:06.327Z,30.57
2019-02-25T06:40:36.104Z,29.83
2019-02-25T06:43:06.047Z,30.63
2019-02-25T06:45:35.980Z,29.97
2019-02-25T06:48:05.830Z,29.53
2019-02-25T06:50:38.495Z,23.53
2019-02-25T06:53:12.825Z,25.23
2019-02-25T06:55:44.247Z,23.47
2019-02-25T06:58:13.958Z,29.40
2019-02-25T07:00:43.667Z,26.33
2019-02-25T07:03:19.057Z,28.10
2019-02-25T07:06:04.801Z,37.50
2019-02-25T07:09:04.567Z,25.57
2019-02-25T07:11:46.222Z,25.40
2019-02-25T07:14:53.570Z,31.53
2019-02-25T07:17:42.428Z,27.73
2019-02-25T07:20:36.922Z,30.17
2019-02-25T07:23:26.334Z,28.43
2019-02-25T07:26:18.307Z,34.50
2019-02-25T07:29:06.343Z,32.33
2019-02-25T07:31:45.151Z,22.40
2019-02-25T07:34:43.208Z,31.27
2019-02-25T07:37:31.060Z,30.13
2019-02-25T07:40:31.656Z,28.13
2019-02-25T07:43:33.115Z,34.57
2019-02-25T07:46:22.079Z,35.10
2019-02-25T07:49:13.298Z,33.17
2019-02-25T07:51:52.728Z,24.83
2019-02-25T07:54:40.370Z,26.00
2019-02-25T07:57:22.082Z,34.90
2019-02-25T07:59:58.717Z,26.67
2019-02-25T08:02:47.430Z,27.17
2019-02-25T08:05:31.650Z,28.07
2019-02-25T08:08:31.819Z,31.23
2019-02-25T08:11:23.242Z,35.03
2019-02-25T08:14:01.926Z,29.80
2019-02-25T08:16:46.372Z,32.37
2019-02-25T08:19:28.253Z,31.30
2019-02-25T08:22:32.016Z,35.07
2019-02-25T08:25:25.401Z,32.80
2019-02-25T08:28:13.084Z,30.60
2019-02-25T08:30:55.831Z,31.67
2019-02-25T08:33:49.067Z,33.87
2019-02-25T08:37:25.110Z,35.07
2019-02-25T08:40:20.347Z,32.13
2019-02-25T08:42:53.595Z,25.23
2019-02-25T08:45:29.686Z,27.37
2019-02-25T08:48:10.022Z,27.63
2019-02-25T08:50:40.991Z,28.77
2019-02-25T08:53:10.882Z,28.53
2019-02-25T08:55:41.137Z,22.83
2019-02-25T08:58:12.013Z,24.37
2019-02-25T09:00:44.391Z,22.90
2019-02-25T09:03:16.311Z,22.87
2019-02-25T09:05:48.396Z,23.50
2019-02-25T09:08:19.082Z,29.10
2019-02-25T09:10:51.116Z,25.90
2019-02-25T09:13:23.787Z,27.53
2019-02-25T09:15:53.706Z,21.87
2019-02-25T09:18:23.492Z,19.67
2019-02-25T09:20:53.259Z,23.23
2019-02-25T09:23:23.038Z,27.23
2019-02-25T09:25:53.958Z,20.17
2019-02-25T09:28:23.881Z,20.87
2019-02-25T09:30:53.980Z,20.33
2019-02-25T09:33:24.922Z,20.20
2019-02-25T09:35:54.691Z,21.77
2019-02-25T09:38:24.444Z,20.80
2019-02-25T09:40:54.233Z,20.70
2019-02-25T09:43:25.925Z,24.13
2019-02-25T09:46:14.554Z,18.53
2019-02-25T09:48:44.571Z,15.43
2019-02-25T09:51:15.183Z,20.73
2019-02-25T09:53:44.913Z,22.70
2019-02-25T09:56:14.618Z,18.37
2019-02-25T09:58:44.387Z,16.27
2019-02-25T10:01:14.275Z,20.07
2019-02-25T10:03:44.219Z,17.27
2019-02-25T10:06:14.009Z,16.43
2019-02-25T10:08:43.866Z,17.93
2019-02-25T10:11:13.901Z,18.40
2019-02-25T10:13:43.698Z,21.00
2019-02-25T10:16:13.522Z,22.70
2019-02-25T10:18:43.227Z,20.57
2019-02-25T10:21:12.942Z,18.70
2019-02-25T10:23:42.886Z,17.57
2019-02-25T10:26:12.594Z,25.67
2019-02-25T10:28:42.394Z,19.77
2019-02-25T10:31:13.215Z,22.00
2019-02-25T10:33:43.578Z,28.80
2019-02-25T10:36:13.410Z,21.93
2019-02-25T10:38:45.479Z,16.93
2019-02-25T10:41:17.182Z,19.10
2019-02-25T10:43:49.915Z,22.07
2019-02-25T10:46:19.642Z,18.47
2019-02-25T10:48:51.916Z,17.23
2019-02-25T10:51:20.847Z,16.77
2019-02-25T10:53:51.531Z,16.67
2019-02-25T10:56:32.907Z,14.70
2019-02-25T10:59:04.510Z,19.87
2019-02-25T11:01:34.222Z,20.37
2019-02-25T11:04:04.254Z,21.73
2019-02-25T11:06:35.986Z,17.70
2019-02-25T11:09:26.983Z,19.40
2019-02-25T11:11:59.962Z,18.10
2019-02-25T11:14:31.133Z,22.30
2019-02-25T11:17:00.949Z,20.30
2019-02-25T11:19:32.879Z,18.63
2019-02-25T11:22:02.340Z,19.30
2019-02-25T11:24:32.294Z,16.67
2019-02-25T11:27:03.487Z,18.73
2019-02-25T11:29:33.696Z,16.37
2019-02-25T11:32:03.588Z,13.93
2019-02-25T11:34:34.110Z,12.47
2019-02-25T11:37:05.491Z,10.40
2019-02-25T11:39:37.145Z,9.73
2019-02-25T11:42:08.006Z,11.87
2019-02-25T11:44:38.121Z,7.77
2019-02-25T11:47:08.063Z,9.90
2019-02-25T11:49:38.143Z,12.40
2019-02-25T11:52:07.955Z,13.00
2019-02-25T11:54:38.865Z,11.30
2019-02-25T11:57:11.042Z,14.97
2019-02-25T11:59:41.189Z,12.57
2019-02-25T12:02:11.063Z,12.57
2019-02-25T12:04:41.632Z,16.17
2019-02-25T12:07:11.411Z,18.33
2019-02-25T12:09:41.178Z,17.33
2019-02-25T12:12:10.916Z,14.70
2019-02-25T12:14:42.698Z,17.90
2019-02-25T12:17:12.524Z,20.37
2019-02-25T12:19:42.303Z,19.30
2019-02-25T12:22:12.114Z,16.97
2019-02-25T12:24:41.938Z,17.63
2019-02-25T12:27:11.974Z,17.80
2019-02-25T12:29:43.474Z,16.83
2019-02-25T12:32:13.267Z,16.83
2019-02-25T12:34:42.966Z,15.10
2019-02-25T12:37:14.076Z,18.73
2019-02-25T12:39:43.838Z,20.40
2019-02-25T12:42:14.691Z,18.33
2019-02-25T12:44:44.492Z,15.50
2019-02-25T12:47:14.191Z,18.33
2019-02-25T12:49:43.902Z,17.73
2019-02-25T12:52:13.686Z,15.97
2019-02-25T12:54:43.441Z,19.57
2019-02-25T12:57:13.158Z,15.07
2019-02-25T12:59:42.915Z,18.10
2019-02-25T13:02:12.707Z,16.37
2019-02-25T13:04:43.767Z,15.67
2019-02-25T13:07:13.588Z,14.43
2019-02-25T13:09:43.449Z,23.47
2019-02-25T13:12:13.796Z,15.03
2019-02-25T13:14:43.714Z,15.73
2019-02-25T13:17:13.422Z,15.07
2019-02-25T13:19:43.238Z,18.60
2019-02-25T13:22:12.953Z,17.57
2019-02-25T13:24:42.674Z,16.27
2019-02-25T13:27:13.881Z,21.03
2019-02-25T13:29:43.770Z,15.77
2019-02-25T13:32:13.495Z,16.80
2019-02-25T13:34:43.343Z,15.97
2019-02-25T13:37:13.363Z,17.60
2019-02-25T13:39:43.267Z,16.53
2019-02-25T13:42:13.147Z,13.07
2019-02-25T13:44:42.906Z,14.97
2019-02-25T13:47:12.752Z,14.80
2019-02-25T13:49:42.621Z,15.03
2019-02-25T13:52:12.603Z,13.10
2019-02-25T13:54:43.388Z,15.17
2019-02-25T13:57:13.322Z,15.17
2019-02-25T13:59:43.245Z,16.07
2019-02-25T14:02:13.238Z,17.97
2019-02-25T14:04:43.182Z,22.00
2019-02-25T14:07:14.295Z,17.13
2019-02-25T14:09:44.107Z,16.20
2019-02-25T14:12:15.122Z,16.83
2019-02-25T14:14:45.287Z,17.37
2019-02-25T14:17:15.170Z,15.93
2019-02-25T14:19:45.150Z,16.70
2019-02-25T14:22:16.557Z,14.50
2019-02-25T14:24:46.473Z,14.00
2019-02-25T14:27:16.259Z,14.53
2019-02-25T14:29:48.029Z,14.73
2019-02-25T14:32:17.923Z,11.30
2019-02-25T14:34:48.132Z,17.53
2019-02-25T14:37:20.810Z,13.70
2019-02-25T14:39:53.755Z,10.27
2019-02-25T14:42:25.665Z,11.33
2019-02-25T14:44:56.203Z,12.27
2019-02-25T14:47:32.168Z,12.67
2019-02-25T14:49:57.718Z,14.53
2019-02-25T14:52:29.312Z,14.73
2019-02-25T14:55:00.950Z,13.33
2019-02-25T14:57:35.253Z,17.23
2019-02-25T15:00:07.719Z,11.80
2019-02-25T15:02:39.502Z,14.60
2019-02-25T15:05:10.818Z,13.23
2019-02-25T15:07:42.463Z,18.10
2019-02-25T15:10:14.304Z,19.73
2019-02-25T15:12:44.421Z,13.20
2019-02-25T15:15:14.447Z,15.00
2019-02-25T15:17:45.701Z,15.10
2019-02-25T15:20:16.581Z,13.27
2019-02-25T15:22:47.646Z,15.50
2019-02-25T15:25:18.051Z,15.80
2019-02-25T15:27:47.986Z,18.93
2019-02-25T15:30:22.881Z,12.97
2019-02-25T15:32:55.585Z,14.27
2019-02-25T15:35:26.498Z,13.53
2019-02-25T15:37:57.692Z,14.33
2019-02-25T15:40:28.275Z,15.60
2019-02-25T15:43:03.319Z,17.00
2019-02-25T15:45:35.492Z,18.60
2019-02-25T15:48:09.106Z,16.33
2019-02-25T15:50:38.952Z,15.60
2019-02-25T15:53:11.667Z,15.20
2019-02-25T15:55:42.345Z,10.50
2019-02-25T15:58:14.002Z,15.93
2019-02-25T16:00:45.628Z,16.33
2019-02-25T16:03:16.324Z,13.93
2019-02-25T16:05:47.212Z,15.83
2019-02-25T16:08:19.437Z,14.97
2019-02-25T16:10:51.767Z,20.50
2019-02-25T16:13:22.810Z,22.50
2019-02-25T16:15:52.782Z,20.23
2019-02-25T16:18:27.470Z,21.70
2019-02-25T16:20:57.432Z,20.30
2019-02-25T16:23:27.885Z,20.40
2019-02-25T16:25:58.126Z,22.40
2019-02-25T16:28:29.540Z,20.87
2019-02-25T16:31:00.559Z,21.57
2019-02-25T16:33:33.019Z,25.77
2019-02-25T16:36:07.420Z,22.93
2019-02-25T16:38:37.707Z,25.30
2019-02-25T16:41:10.206Z,22.93
2019-02-25T16:43:40.322Z,28.33
2019-02-25T16:46:13.487Z,26.10
2019-02-25T16:48:41.754Z,27.13
2019-02-25T16:51:12.572Z,29.83
2019-02-25T16:53:43.805Z,23.87
2019-02-25T16:56:14.829Z,30.70
2019-02-25T16:58:47.596Z,22.13
2019-02-25T17:01:17.435Z,18.43
2019-02-25T17:03:48.908Z,22.57
2019-02-25T17:06:18.735Z,26.97
2019-02-25T17:08:48.886Z,25.73
2019-02-25T17:11:21.891Z,22.37
2019-02-25T17:13:52.997Z,25.43
2019-02-25T17:16:24.114Z,22.87
2019-02-25T17:18:54.161Z,26.47
2019-02-25T17:21:24.161Z,27.47
2019-02-25T17:24:00.560Z,22.77
2019-02-25T17:26:31.756Z,22.47
2019-02-25T17:29:01.798Z,18.67
2019-02-25T17:31:32.332Z,28.13
2019-02-25T17:34:04.384Z,24.57
2019-02-25T17:36:35.872Z,22.00
2019-02-25T17:39:08.755Z,29.63
2019-02-25T17:41:42.452Z,29.33
2019-02-25T17:44:11.978Z,23.93
2019-02-25T17:46:43.376Z,25.07
2019-02-25T17:49:14.514Z,28.83
2019-02-25T17:51:45.229Z,24.70
2019-02-25T17:54:18.687Z,23.83
2019-02-25T17:56:49.739Z,43.20
2019-02-25T17:59:21.368Z,29.73
2019-02-25T18:01:51.734Z,25.87
2019-02-25T18:04:21.617Z,32.70
2019-02-25T18:06:51.732Z,29.20
2019-02-25T18:09:24.379Z,30.33
2019-02-25T18:11:54.254Z,25.87
2019-02-25T18:14:24.985Z,27.13
2019-02-25T18:16:54.846Z,28.10
2019-02-25T18:19:27.039Z,21.63
2019-02-25T18:21:58.767Z,27.00
2019-02-25T18:24:28.293Z,28.33
2019-02-25T18:26:59.254Z,30.27
2019-02-25T18:29:29.110Z,28.97
2019-02-25T18:31:59.303Z,24.77
2019-02-25T18:34:30.135Z,27.97
2019-02-25T18:37:00.916Z,29.20
2019-02-25T18:39:31.629Z,32.47
2019-02-25T18:42:03.841Z,27.47
2019-02-25T18:44:33.647Z,33.00
2019-02-25T18:47:03.546Z,32.57
2019-02-25T18:49:34.998Z,32.20
2019-02-25T18:52:05.232Z,31.47
2019-02-25T18:54:36.821Z,31.63
2019-02-25T18:57:07.636Z,41.47
2019-02-25T18:59:37.606Z,28.70
2019-02-25T19:02:10.067Z,32.60
2019-02-25T19:04:41.395Z,33.00
2019-02-25T19:07:13.395Z,36.73
2019-02-25T19:09:45.247Z,36.20
2019-02-25T19:12:16.287Z,36.27
2019-02-25T19:14:46.092Z,32.03
2019-02-25T19:17:15.975Z,37.10
2019-02-25T19:19:46.983Z,37.27
2019-02-25T19:22:19.406Z,29.77
2019-02-25T19:24:50.755Z,28.87
2019-02-25T19:27:22.049Z,28.17
2019-02-25T19:29:53.623Z,22.57
2019-02-25T19:32:23.680Z,29.10
2019-02-25T19:34:54.033Z,29.57
2019-02-25T19:37:28.903Z,28.13
2019-02-25T19:39:56.911Z,27.10
2019-02-25T19:42:29.552Z,24.83
2019-02-25T19:45:01.539Z,26.93
2019-02-25T19:47:33.003Z,26.67
2019-02-25T19:50:05.201Z,26.67
2019-02-25T19:52:37.178Z,28.10
2019-02-25T19:55:08.086Z,30.60
2019-02-25T19:57:38.960Z,22.73
2019-02-25T20:00:17.439Z,31.97
2019-02-25T20:02:47.988Z,30.50
2019-02-25T20:05:21.764Z,29.07
2019-02-25T20:07:51.553Z,30.53
2019-02-25T20:10:30.118Z,29.33
2019-02-25T20:12:59.369Z,26.57
2019-02-25T20:15:29.234Z,28.13
2019-02-25T20:18:00.662Z,30.60
2019-02-25T20:20:36.567Z,33.30
2019-02-25T20:23:08.593Z,34.60
2019-02-25T20:25:42.460Z,31.73
2019-02-25T20:28:10.404Z,39.77
2019-02-25T20:30:40.386Z,29.83
2019-02-25T20:33:10.861Z,33.50
2019-02-25T20:35:40.909Z,31.90
2019-02-25T20:38:10.710Z,27.57
2019-02-25T20:40:40.674Z,27.93
2019-02-25T20:43:11.467Z,30.93
2019-02-25T20:45:41.317Z,25.83
2019-02-25T20:48:11.475Z,27.03
2019-02-25T20:50:41.234Z,28.97
2019-02-25T20:53:11.192Z,35.77
2019-02-25T20:55:41.303Z,27.97
2019-02-25T20:58:13.931Z,28.83
2019-02-25T21:00:46.612Z,32.17
2019-02-25T21:03:18.331Z,31.80
2019-02-25T21:05:47.887Z,27.07
2019-02-25T21:08:19.083Z,25.57
2019-02-25T21:10:49.740Z,27.90
2019-02-25T21:13:19.457Z,31.73
2019-02-25T21:15:50.778Z,34.43
2019-02-25T21:18:22.395Z,35.73
2019-02-25T21:20:53.639Z,31.40
2019-02-25T21:23:23.569Z,38.40
2019-02-25T21:25:55.433Z,37.53
2019-02-25T21:28:27.063Z,33.03
2019-02-25T21:30:56.409Z,37.70
2019-02-25T21:33:28.263Z,34.63
2019-02-25T21:35:58.385Z,30.43
2019-02-25T21:38:30.270Z,29.00
2019-02-25T21:40:59.984Z,32.80
2019-02-25T21:43:29.776Z,29.27
2019-02-25T21:46:02.757Z,26.20
2019-02-25T21:48:35.215Z,30.37
2019-02-25T21:51:07.817Z,24.17
2019-02-25T21:53:37.531Z,26.90
2019-02-25T21:56:07.316Z,29.47
2019-02-25T21:58:37.117Z,28.27
2019-02-25T22:01:08.475Z,27.37
2019-02-25T22:03:41.256Z,32.80
2019-02-25T22:06:09.698Z,32.90
2019-02-25T22:08:39.527Z,37.33
2019-02-25T22:11:14.438Z,31.20
2019-02-25T22:13:40.853Z,33.47
2019-02-25T22:16:10.562Z,25.73
2019-02-25T22:18:40.257Z,33.70
2019-02-25T22:21:11.808Z,26.97
2019-02-25T22:23:41.613Z,23.30
2019-02-25T22:26:12.205Z,24.87
2019-02-25T22:28:43.158Z,28.43
2019-02-25T22:31:13.876Z,36.37
2019-02-25T22:33:45.298Z,29.77
2019-02-25T22:36:15.181Z,30.60
2019-02-25T22:38:44.890Z,36.13
2019-02-25T22:41:16.743Z,31.43
2019-02-25T22:43:48.207Z,33.40
2019-02-25T22:46:18.136Z,48.50
2019-02-25T22:48:48.028Z,42.50
2019-02-25T22:51:21.893Z,35.90
2019-02-25T22:53:49.498Z,37.00
2019-02-25T22:56:23.382Z,39.83
2019-02-25T22:58:56.058Z,36.10
2019-02-25T23:01:25.927Z,42.03
2019-02-25T23:03:57.376Z,35.20
2019-02-25T23:06:28.406Z,33.87
2019-02-25T23:08:58.199Z,34.17
2019-02-25T23:11:28.026Z,37.73
2019-02-25T23:13:57.818Z,34.80
2019-02-25T23:16:27.810Z,38.77
2019-02-25T23:18:57.590Z,29.77
2019-02-25T23:21:29.313Z,42.87
2019-02-25T23:24:01.366Z,37.53
2019-02-25T23:26:31.519Z,36.27
2019-02-25T23:29:01.222Z,34.93
2019-02-25T23:31:31.053Z,34.60
2019-02-25T23:34:02.152Z,38.47
2019-02-25T23:36:32.879Z,33.80
2019-02-25T23:39:04.344Z,34.77
2019-02-25T23:41:36.642Z,30.43
2019-02-25T23:44:08.969Z,36.10
2019-02-25T23:46:40.053Z,36.70
2019-02-25T23:49:10.043Z,30.37
2019-02-25T23:51:41.565Z,34.43
2019-02-25T23:54:12.202Z,35.83
2019-02-25T23:56:47.655Z,36.27
2019-02-25T23:59:17.108Z,30.47
